Terminal Aerodrome Forecast
Issued by NWS Wakefield, VA

Home | Current Version | Previous Version | Text Only | Print | Product List | Glossary On
Versions: 1 2 3 4 5 6 7 8 9 10 11 12 13 14 15 16 17 18 19 20
388
FTUS41 KAKQ 302330
TAFRIC
TAF
KRIC 302330Z 0100/0124 11009KT P6SM SCT045 BKN100
     FM010700 VRB02KT 4SM BR BKN250
     FM011300 20006KT P6SM BKN250
     FM011700 21011KT P6SM BKN050=

USA.gov is the U.S. government's official web portal to all federal, state and local government web resources and services.